Wetterdaten: Woche 10.10.11 - 16.10.11 (KW41)
Datum Zeit Temp. A. Feuchte A. Luftdruck Regen Wind Richtung Taupunkt Windchill Windben
10.10.2011 00:00 8,2 C 72 % 1022,5 hPa 0,0 l/m 3,4 km/h W 3,5 C 8,2 C 16,1 km/h
10.10.2011 01:00 7,7 C 71 % 1022,1 hPa 0,0 l/m 2,2 km/h W-SW 2,8 C 7,7 C 16,5 km/h
10.10.2011 02:00 7,4 C 72 % 1021,8 hPa 0,0 l/m 2,5 km/h S 2,7 C 7,4 C 14,5 km/h
10.10.2011 03:00 7,2 C 73 % 1021,1 hPa 0,0 l/m 1,2 km/h NW 2,7 C 7,2 C 5,6 km/h
10.10.2011 04:00 6,8 C 75 % 1020,2 hPa 0,0 l/m 0,3 km/h N 2,6 C 6,8 C 2,8 km/h
10.10.2011 05:00 6,5 C 77 % 1019,6 hPa 0,0 l/m 0,0 km/h N 2,7 C 6,5 C 0,4 km/h
10.10.2011 06:00 6,4 C 79 % 1019,5 hPa 0,0 l/m 0,0 km/h N 3,0 C 6,4 C 0,4 km/h
10.10.2011 07:00 6,3 C 81 % 1019,3 hPa 0,0 l/m 0,0 km/h N 3,3 C 6,3 C 0,4 km/h
10.10.2011 08:00 6,8 C 82 % 1019,8 hPa 0,0 l/m 1,1 km/h SW 3,8 C 6,8 C 7,2 km/h
10.10.2011 09:00 9,0 C 75 % 1019,7 hPa 0,0 l/m 2,9 km/h SW 4,7 C 9,0 C 14,1 km/h
10.10.2011 10:00 9,7 C 75 % 1019,6 hPa 0,0 l/m 1,0 km/h S-SW 5,5 C 9,7 C 8,1 km/h
10.10.2011 11:00 10,1 C 76 % 1019,4 hPa 0,3 l/m 2,4 km/h S-SW 6,0 C 10,1 C 12,1 km/h
10.10.2011 12:00 9,9 C 77 % 1019,2 hPa 0,0 l/m 1,4 km/h S-SO 6,1 C 9,9 C 8,4 km/h
10.10.2011 13:00 10,1 C 79 % 1018,7 hPa 0,5 l/m 1,8 km/h S 6,6 C 10,1 C 8,4 km/h
10.10.2011 14:00 9,6 C 80 % 1018,1 hPa 0,8 l/m 1,3 km/h SW 6,4 C 9,6 C 8,1 km/h
10.10.2011 15:00 9,3 C 83 % 1017,5 hPa 0,3 l/m 0,0 km/h N 6,5 C 9,3 C 1,6 km/h
10.10.2011 16:00 9,6 C 82 % 1017,1 hPa 0,5 l/m 0,0 km/h N 6,8 C 9,6 C 0,4 km/h
10.10.2011 17:00 10,1 C 81 % 1016,9 hPa 1,6 l/m 0,0 km/h N 7,1 C 10,1 C 0,8 km/h
10.10.2011 18:00 10,4 C 81 % 1016,8 hPa 1,8 l/m 0,0 km/h N 7,3 C 10,4 C 1,6 km/h
10.10.2011 19:00 10,2 C 80 % 1016,5 hPa 1,3 l/m 0,2 km/h N 6,9 C 10,2 C 3,2 km/h
10.10.2011 20:00 11,3 C 77 % 1016,2 hPa 0,8 l/m 2,2 km/h NO 7,5 C 11,3 C 11,3 km/h
10.10.2011 21:00 14,0 C 76 % 1015,7 hPa 0,3 l/m 5,5 km/h S-SO 9,8 C 13,9 C 22,1 km/h
10.10.2011 22:00 14,7 C 80 % 1015,3 hPa 0,0 l/m 6,7 km/h N-NO 11,2 C 14,3 C 25,0 km/h
10.10.2011 23:00 15,3 C 82 % 1014,8 hPa 0,0 l/m 6,8 km/h W-SW 12,2 C 15,0 C 26,1 km/h
11.10.2011 00:00 15,8 C 81 % 1015,1 hPa 0,0 l/m 4,9 km/h S 12,5 C 15,7 C 21,7 km/h
11.10.2011 01:00 16,1 C 81 % 1015,5 hPa 0,0 l/m 6,4 km/h W-SW 12,8 C 15,9 C 26,5 km/h
11.10.2011 02:00 16,3 C 79 % 1015,7 hPa 0,0 l/m 7,7 km/h W-NW 12,7 C 15,6 C 30,5 km/h
11.10.2011 03:00 16,3 C 78 % 1016,0 hPa 0,0 l/m 6,6 km/h W-NW 12,5 C 16,2 C 27,0 km/h
11.10.2011 04:00 16,1 C 80 % 1016,0 hPa 0,0 l/m 9,4 km/h NW 12,6 C 14,7 C 32,6 km/h
11.10.2011 05:00 15,8 C 80 % 1016,3 hPa 0,0 l/m 8,3 km/h NW 12,3 C 14,8 C 31,4 km/h
11.10.2011 06:00 15,7 C 80 % 1016,5 hPa 0,0 l/m 8,0 km/h SW 12,3 C 14,9 C 30,2 km/h
11.10.2011 07:00 15,8 C 78 % 1016,6 hPa 0,0 l/m 5,9 km/h SW 11,9 C 15,7 C 26,1 km/h
11.10.2011 08:00 16,0 C 75 % 1016,3 hPa 0,0 l/m 9,6 km/h W 11,6 C 14,5 C 33,0 km/h
11.10.2011 09:00 16,2 C 73 % 1016,5 hPa 0,0 l/m 8,8 km/h NW 11,4 C 15,0 C 28,9 km/h
11.10.2011 10:00 16,3 C 74 % 1016,9 hPa 0,0 l/m 6,2 km/h SW 11,6 C 16,3 C 25,3 km/h
11.10.2011 11:00 16,6 C 75 % 1016,9 hPa 0,0 l/m 6,6 km/h W-NW 12,0 C 16,4 C 29,8 km/h
11.10.2011 12:00 17,1 C 73 % 1016,8 hPa 0,0 l/m 6,8 km/h SW 12,2 C 16,8 C 25,0 km/h
11.10.2011 13:00 17,5 C 71 % 1016,2 hPa 0,0 l/m 6,7 km/h S-SW 12,2 C 17,4 C 26,2 km/h
11.10.2011 14:00 18,1 C 67 % 1015,6 hPa 0,0 l/m 9,4 km/h N-NO 11,9 C 16,8 C 30,2 km/h
11.10.2011 15:00 18,5 C 66 % 1015,2 hPa 0,0 l/m 7,0 km/h NW 12,1 C 18,2 C 24,9 km/h
11.10.2011 16:00 18,3 C 67 % 1015,0 hPa 0,0 l/m 6,9 km/h W-SW 12,0 C 18,0 C 29,0 km/h
11.10.2011 17:00 18,1 C 69 % 1015,2 hPa 0,0 l/m 6,4 km/h NW 12,3 C 18,0 C 26,1 km/h
11.10.2011 18:00 17,6 C 71 % 1015,4 hPa 0,0 l/m 3,1 km/h NW 12,4 C 17,6 C 17,7 km/h
11.10.2011 19:00 17,0 C 73 % 1015,6 hPa 0,0 l/m 2,0 km/h NW 12,2 C 17,0 C 8,1 km/h
11.10.2011 20:00 16,8 C 74 % 1015,6 hPa 0,0 l/m 1,4 km/h W-SW 12,1 C 16,8 C 10,1 km/h
11.10.2011 21:00 16,7 C 74 % 1015,5 hPa 0,0 l/m 0,5 km/h N 12,1 C 16,7 C 7,2 km/h
11.10.2011 22:00 16,3 C 76 % 1015,2 hPa 0,0 l/m 0,6 km/h S 12,0 C 16,3 C 6,0 km/h
11.10.2011 23:00 17,0 C 74 % 1015,0 hPa 0,0 l/m 2,5 km/h SO 12,2 C 17,0 C 14,5 km/h
12.10.2011 00:00 17,4 C 72 % 1015,2 hPa 0,0 l/m 4,5 km/h S 12,3 C 17,4 C 23,7 km/h
12.10.2011 01:00 17,0 C 71 % 1015,0 hPa 0,0 l/m 5,9 km/h W-SW 11,6 C 16,9 C 26,6 km/h
12.10.2011 02:00 16,6 C 69 % 1014,6 hPa 0,0 l/m 7,4 km/h NW 10,8 C 16,1 C 30,2 km/h
12.10.2011 03:00 15,9 C 72 % 1014,6 hPa 0,0 l/m 6,6 km/h W-SW 10,8 C 15,8 C 30,2 km/h
12.10.2011 04:00 15,6 C 73 % 1014,6 hPa 0,0 l/m 6,7 km/h SW 10,7 C 15,4 C 29,0 km/h
12.10.2011 05:00 15,4 C 74 % 1014,5 hPa 0,0 l/m 6,3 km/h S 10,6 C 15,2 C 28,2 km/h
12.10.2011 06:00 15,1 C 74 % 1014,7 hPa 0,0 l/m 5,7 km/h S-SW 10,6 C 15,1 C 25,3 km/h
12.10.2011 07:00 15,2 C 74 % 1014,7 hPa 0,0 l/m 5,8 km/h S-SW 10,6 C 15,0 C 26,5 km/h
12.10.2011 08:00 15,4 C 74 % 1014,8 hPa 0,0 l/m 7,3 km/h W-SW 10,7 C 14,9 C 27,3 km/h
12.10.2011 09:00 14,9 C 77 % 1016,5 hPa 0,5 l/m 5,1 km/h N-NO 10,8 C 14,9 C 18,1 km/h
12.10.2011 10:00 12,0 C 82 % 1017,7 hPa 0,8 l/m 1,8 km/h N-NO 9,1 C 12,0 C 6,4 km/h
12.10.2011 11:00 11,3 C 81 % 1018,1 hPa 1,3 l/m 2,2 km/h N-NW 8,2 C 11,3 C 6,4 km/h
12.10.2011 12:00 10,8 C 81 % 1018,0 hPa 1,0 l/m 1,2 km/h N-NW 7,7 C 10,8 C 4,8 km/h
12.10.2011 13:00 10,9 C 81 % 1017,9 hPa 1,3 l/m 0,3 km/h N 7,7 C 10,9 C 2,8 km/h
12.10.2011 14:00 10,8 C 80 % 1017,4 hPa 0,5 l/m 0,3 km/h N 7,5 C 10,8 C 2,4 km/h
12.10.2011 15:00 10,9 C 80 % 1017,2 hPa 1,0 l/m 0,3 km/h N 7,6 C 10,9 C 3,2 km/h
12.10.2011 16:00 10,9 C 80 % 1016,9 hPa 0,8 l/m 0,2 km/h N 7,6 C 10,9 C 2,4 km/h
12.10.2011 17:00 10,9 C 80 % 1016,9 hPa 0,5 l/m 0,2 km/h N 7,6 C 10,9 C 2,4 km/h
12.10.2011 18:00 10,9 C 80 % 1017,2 hPa 1,3 l/m 0,0 km/h N 7,6 C 10,9 C 0,8 km/h
12.10.2011 19:00 10,9 C 80 % 1017,7 hPa 2,9 l/m 0,0 km/h N 7,6 C 10,9 C 0,4 km/h
12.10.2011 20:00 10,6 C 80 % 1018,1 hPa 4,9 l/m 0,0 km/h N 7,3 C 10,6 C 0,8 km/h
12.10.2011 21:00 10,3 C 80 % 1018,4 hPa 5,5 l/m 0,0 km/h N 7,0 C 10,3 C 0,0 km/h
12.10.2011 22:00 10,2 C 80 % 1018,8 hPa 4,2 l/m 0,0 km/h N 6,9 C 10,2 C 0,0 km/h
12.10.2011 23:00 10,2 C 79 % 1019,3 hPa 1,8 l/m 0,1 km/h N 6,7 C 10,2 C 2,0 km/h
13.10.2011 00:00 10,1 C 79 % 1019,6 hPa 2,6 l/m 0,2 km/h N 6,7 C 10,1 C 2,4 km/h
13.10.2011 01:00 9,9 C 80 % 1019,8 hPa 1,3 l/m 0,1 km/h N 6,5 C 9,9 C 1,6 km/h
13.10.2011 02:00 9,3 C 80 % 1020,2 hPa 1,6 l/m 0,1 km/h N 6,0 C 9,3 C 2,4 km/h
13.10.2011 03:00 8,9 C 80 % 1020,4 hPa 2,1 l/m 0,2 km/h N 5,6 C 8,9 C 3,6 km/h
13.10.2011 04:00 8,7 C 80 % 1020,8 hPa 1,6 l/m 0,2 km/h N 5,4 C 8,7 C 4,4 km/h
13.10.2011 05:00 8,4 C 80 % 1021,0 hPa 0,5 l/m 0,3 km/h N 5,1 C 8,4 C 4,4 km/h
13.10.2011 06:00 8,1 C 80 % 1021,4 hPa 0,0 l/m 0,1 km/h N 4,9 C 8,1 C 4,4 km/h
13.10.2011 07:00 7,9 C 80 % 1022,0 hPa 0,0 l/m 0,0 km/h N 4,7 C 7,9 C 1,2 km/h
13.10.2011 08:00 7,9 C 80 % 1023,0 hPa 0,0 l/m 0,6 km/h NW 4,7 C 7,9 C 4,8 km/h
13.10.2011 09:00 8,5 C 80 % 1023,7 hPa 0,0 l/m 1,0 km/h NW 5,3 C 8,5 C 9,6 km/h
13.10.2011 10:00 9,6 C 81 % 1024,1 hPa 0,0 l/m 3,1 km/h NW 6,5 C 9,6 C 12,5 km/h
13.10.2011 11:00 10,6 C 82 % 1024,5 hPa 0,0 l/m 3,6 km/h N-NW 7,7 C 10,6 C 12,5 km/h
13.10.2011 12:00 11,2 C 78 % 1024,6 hPa 0,0 l/m 2,7 km/h N-NW 7,4 C 11,2 C 8,9 km/h
13.10.2011 13:00 11,4 C 74 % 1024,8 hPa 0,0 l/m 3,9 km/h N-NW 6,9 C 11,4 C 11,3 km/h
13.10.2011 14:00 11,6 C 69 % 1024,9 hPa 0,0 l/m 4,3 km/h N-NW 6,1 C 11,6 C 12,1 km/h
13.10.2011 15:00 12,1 C 65 % 1024,9 hPa 0,0 l/m 5,2 km/h NW 5,7 C 12,1 C 15,3 km/h
13.10.2011 16:00 12,1 C 64 % 1025,3 hPa 0,0 l/m 3,5 km/h NW 5,6 C 12,1 C 10,9 km/h
13.10.2011 17:00 11,5 C 64 % 1025,6 hPa 0,0 l/m 2,6 km/h N-NW 4,9 C 11,5 C 9,3 km/h
13.10.2011 18:00 10,4 C 67 % 1026,3 hPa 0,0 l/m 2,0 km/h NW 4,5 C 10,4 C 7,6 km/h
13.10.2011 19:00 9,8 C 70 % 1027,2 hPa 0,0 l/m 0,4 km/h N 4,5 C 9,8 C 2,8 km/h
13.10.2011 20:00 8,9 C 71 % 1027,7 hPa 0,0 l/m 1,4 km/h N-NW 4,0 C 8,9 C 4,8 km/h
13.10.2011 21:00 8,6 C 73 % 1028,3 hPa 0,0 l/m 1,1 km/h NW 4,0 C 8,6 C 4,8 km/h
13.10.2011 22:00 8,3 C 74 % 1028,8 hPa 0,0 l/m 1,4 km/h NW 3,8 C 8,3 C 5,6 km/h
13.10.2011 23:00 7,9 C 74 % 1029,0 hPa 0,0 l/m 1,8 km/h NW 3,6 C 7,9 C 6,4 km/h
14.10.2011 00:00 7,7 C 74 % 1029,0 hPa 0,0 l/m 1,5 km/h NW 3,3 C 7,7 C 7,2 km/h
14.10.2011 01:00 7,7 C 73 % 1029,1 hPa 0,0 l/m 1,2 km/h NW 3,0 C 7,7 C 5,6 km/h
14.10.2011 02:00 7,4 C 74 % 1029,0 hPa 0,0 l/m 0,5 km/h NW 3,0 C 7,4 C 4,0 km/h
14.10.2011 03:00 7,6 C 74 % 1028,9 hPa 0,0 l/m 2,0 km/h NW 3,2 C 7,6 C 6,8 km/h
14.10.2011 04:00 7,3 C 75 % 1028,8 hPa 0,0 l/m 3,6 km/h NW 3,1 C 7,3 C 10,1 km/h
14.10.2011 05:00 6,7 C 78 % 1028,9 hPa 0,0 l/m 4,3 km/h N-NW 3,0 C 6,7 C 9,7 km/h
14.10.2011 06:00 6,2 C 80 % 1029,1 hPa 0,0 l/m 2,8 km/h N-NW 2,9 C 6,2 C 8,8 km/h
14.10.2011 07:00 5,8 C 81 % 1029,6 hPa 0,0 l/m 1,8 km/h N-NW 2,7 C 5,8 C 7,6 km/h
14.10.2011 08:00 6,0 C 81 % 1030,4 hPa 0,0 l/m 3,8 km/h N-NW 2,9 C 6,0 C 9,7 km/h
14.10.2011 09:00 6,8 C 79 % 1031,3 hPa 0,0 l/m 3,8 km/h NW 3,3 C 6,8 C 12,1 km/h
14.10.2011 10:00 7,5 C 75 % 1031,7 hPa 0,0 l/m 4,4 km/h N-NW 3,3 C 7,5 C 10,5 km/h
14.10.2011 11:00 8,2 C 70 % 1031,8 hPa 0,0 l/m 4,5 km/h N-NO 3,0 C 8,2 C 11,3 km/h
14.10.2011 12:00 8,6 C 67 % 1032,0 hPa 0,0 l/m 3,2 km/h N-NO 2,8 C 8,6 C 8,9 km/h
14.10.2011 13:00 8,6 C 63 % 1032,3 hPa 0,0 l/m 3,8 km/h N 1,8 C 8,6 C 11,7 km/h
14.10.2011 14:00 8,9 C 59 % 1032,3 hPa 0,0 l/m 3,5 km/h N-NW 1,4 C 8,9 C 11,3 km/h
14.10.2011 15:00 8,9 C 58 % 1032,4 hPa 0,0 l/m 3,8 km/h N-NO 1,2 C 8,9 C 11,7 km/h
14.10.2011 16:00 8,7 C 61 % 1032,7 hPa 0,0 l/m 3,3 km/h N-NO 1,5 C 8,7 C 10,1 km/h
14.10.2011 17:00 8,4 C 62 % 1033,2 hPa 0,0 l/m 2,8 km/h N-NW 1,4 C 8,4 C 10,0 km/h
14.10.2011 18:00 7,6 C 65 % 1033,6 hPa 0,0 l/m 0,8 km/h N-NW 1,5 C 7,6 C 4,0 km/h
14.10.2011 19:00 6,6 C 68 % 1034,0 hPa 0,0 l/m 0,9 km/h NW 1,0 C 6,6 C 4,4 km/h
14.10.2011 20:00 5,9 C 68 % 1034,4 hPa 0,0 l/m 0,8 km/h NW 0,5 C 5,9 C 4,0 km/h
14.10.2011 21:00 5,4 C 70 % 1034,9 hPa 0,0 l/m 0,0 km/h N 0,3 C 5,4 C 1,2 km/h
14.10.2011 22:00 4,7 C 73 % 1035,3 hPa 0,0 l/m 0,0 km/h N 0,2 C 4,7 C 1,6 km/h
14.10.2011 23:00 4,1 C 74 % 1035,6 hPa 0,0 l/m 0,1 km/h N -0,1 C 4,1 C 3,2 km/h
15.10.2011 00:00 3,4 C 76 % 1035,7 hPa 0,0 l/m 0,1 km/h N -0,4 C 3,4 C 2,8 km/h
15.10.2011 01:00 2,8 C 78 % 1035,4 hPa 0,0 l/m 0,0 km/h N -0,6 C 2,8 C 1,2 km/h
15.10.2011 02:00 2,2 C 80 % 1034,7 hPa 0,0 l/m 0,0 km/h N -1,0 C 2,2 C 0,4 km/h
15.10.2011 03:00 1,7 C 81 % 1034,4 hPa 0,0 l/m 0,0 km/h N -1,2 C 1,7 C 2,0 km/h
15.10.2011 04:00 1,7 C 82 % 1034,1 hPa 0,0 l/m 0,1 km/h N -1,0 C 1,7 C 3,6 km/h
15.10.2011 05:00 1,3 C 82 % 1034,2 hPa 0,0 l/m 0,0 km/h N -1,5 C 1,3 C 0,8 km/h
15.10.2011 06:00 1,1 C 83 % 1034,2 hPa 0,0 l/m 0,5 km/h SW -1,5 C 1,1 C 5,6 km/h
15.10.2011 07:00 1,2 C 84 % 1034,2 hPa 0,0 l/m 0,2 km/h N -1,2 C 1,2 C 3,6 km/h
15.10.2011 08:00 1,6 C 84 % 1034,5 hPa 0,0 l/m 0,3 km/h N -0,8 C 1,6 C 4,4 km/h
15.10.2011 09:00 3,2 C 83 % 1034,4 hPa 0,0 l/m 0,3 km/h N 0,7 C 3,2 C 3,6 km/h
15.10.2011 10:00 5,5 C 76 % 1034,3 hPa 0,0 l/m 0,8 km/h NO 1,7 C 5,5 C 5,6 km/h
15.10.2011 11:00 7,5 C 68 % 1034,1 hPa 0,0 l/m 1,3 km/h N-NO 2,0 C 7,5 C 6,4 km/h
15.10.2011 12:00 8,9 C 65 % 1033,6 hPa 0,0 l/m 2,0 km/h NO 2,7 C 8,9 C 10,1 km/h
15.10.2011 13:00 9,7 C 63 % 1032,8 hPa 0,0 l/m 2,0 km/h NO 3,0 C 9,7 C 8,0 km/h
15.10.2011 14:00 10,3 C 62 % 1032,3 hPa 0,0 l/m 2,1 km/h N-NO 3,3 C 10,3 C 8,4 km/h
15.10.2011 15:00 10,7 C 60 % 1031,7 hPa 0,0 l/m 2,0 km/h N-NO 3,2 C 10,7 C 6,8 km/h
15.10.2011 16:00 10,5 C 60 % 1031,7 hPa 0,0 l/m 2,3 km/h NO 3,0 C 10,5 C 6,4 km/h
15.10.2011 17:00 10,0 C 59 % 1031,5 hPa 0,0 l/m 1,3 km/h N 2,4 C 10,0 C 5,6 km/h
15.10.2011 18:00 9,2 C 64 % 1031,7 hPa 0,0 l/m 0,1 km/h N 2,7 C 9,2 C 2,0 km/h
15.10.2011 19:00 7,4 C 71 % 1031,9 hPa 0,0 l/m 0,0 km/h N 2,5 C 7,4 C 0,4 km/h
15.10.2011 20:00 5,8 C 76 % 1032,0 hPa 0,0 l/m 0,0 km/h N 1,9 C 5,8 C 0,4 km/h
15.10.2011 21:00 4,8 C 79 % 1032,3 hPa 0,0 l/m 0,0 km/h N 1,3 C 4,8 C 0,0 km/h
15.10.2011 22:00 4,0 C 81 % 1032,5 hPa 0,0 l/m 0,0 km/h N 1,1 C 4,0 C 1,2 km/h
15.10.2011 23:00 3,5 C 82 % 1032,6 hPa 0,0 l/m 0,0 km/h N 0,7 C 3,5 C 0,4 km/h
16.10.2011 00:00 3,1 C 83 % 1032,4 hPa 0,0 l/m 0,2 km/h N 0,5 C 3,1 C 2,8 km/h
16.10.2011 01:00 3,0 C 83 % 1032,4 hPa 0,0 l/m 0,0 km/h N 0,4 C 3,0 C 1,2 km/h
16.10.2011 02:00 2,8 C 84 % 1032,4 hPa 0,0 l/m 0,0 km/h N 0,2 C 2,8 C 0,8 km/h
16.10.2011 03:00 2,3 C 84 % 1032,4 hPa 0,0 l/m 0,0 km/h N -0,1 C 2,3 C 1,2 km/h
16.10.2011 04:00 2,0 C 84 % 1032,3 hPa 0,0 l/m 0,0 km/h N -0,4 C 2,0 C 1,2 km/h
16.10.2011 05:00 2,2 C 84 % 1032,4 hPa 0,0 l/m 0,0 km/h N -0,2 C 2,2 C 0,4 km/h
16.10.2011 06:00 2,4 C 84 % 1032,5 hPa 0,0 l/m 0,0 km/h N -0,0 C 2,4 C 1,2 km/h
16.10.2011 07:00 1,8 C 84 % 1032,8 hPa 0,0 l/m 0,0 km/h N -0,6 C 1,8 C 0,0 km/h
16.10.2011 08:00 1,8 C 84 % 1033,2 hPa 0,0 l/m 0,0 km/h N -0,6 C 1,8 C 0,0 km/h
16.10.2011 09:00 2,8 C 83 % 1033,4 hPa 0,0 l/m 0,0 km/h N 0,3 C 2,8 C 0,4 km/h
16.10.2011 10:00 4,4 C 83 % 1033,4 hPa 0,0 l/m 0,1 km/h N 1,7 C 4,4 C 2,4 km/h
16.10.2011 11:00 6,1 C 77 % 1033,2 hPa 0,0 l/m 0,5 km/h N 2,2 C 6,1 C 6,0 km/h
16.10.2011 12:00 8,1 C 59 % 1033,0 hPa 0,0 l/m 0,8 km/h SO 0,5 C 8,1 C 6,4 km/h
16.10.2011 13:00 8,9 C 56 % 1032,6 hPa 0,0 l/m 0,9 km/h O 0,6 C 8,9 C 6,0 km/h
16.10.2011 14:00 9,2 C 55 % 1032,0 hPa 0,0 l/m 1,1 km/h O 0,7 C 9,2 C 5,6 km/h
16.10.2011 15:00 9,3 C 55 % 1031,2 hPa 0,0 l/m 1,1 km/h O-SO 0,8 C 9,3 C 4,8 km/h
16.10.2011 16:00 9,2 C 56 % 1030,7 hPa 0,0 l/m 0,9 km/h NO 0,7 C 9,2 C 5,2 km/h
16.10.2011 17:00 8,8 C 57 % 1030,5 hPa 0,0 l/m 0,3 km/h N 0,7 C 8,8 C 3,6 km/h
16.10.2011 18:00 7,6 C 61 % 1030,6 hPa 0,0 l/m 0,0 km/h N 0,5 C 7,6 C 1,2 km/h
16.10.2011 19:00 6,0 C 67 % 1030,7 hPa 0,0 l/m 0,0 km/h N 0,3 C 6,0 C 0,0 km/h
16.10.2011 20:00 4,2 C 73 % 1030,5 hPa 0,0 l/m 0,0 km/h N -0,3 C 4,2 C 0,0 km/h
16.10.2011 21:00 2,8 C 77 % 1030,3 hPa 0,0 l/m 0,0 km/h N -0,8 C 2,8 C 0,0 km/h
16.10.2011 22:00 1,9 C 80 % 1030,0 hPa 0,0 l/m 0,0 km/h N -1,2 C 1,9 C 0,0 km/h
16.10.2011 23:00 1,2 C 81 % 1029,7 hPa 0,0 l/m 0,0 km/h N -1,7 C 1,2 C 0,0 km/h
Min-Datum _ 15.10.11 16.10.11 12.10.11 - 10.10.11 - 16.10.11 15.10.11 10.10.11
_ Min-Zeit 06:15 14:00 02:30 - 05:00 - 23:45 06:00 05:15
Minimum _ 1,0 C 54 % 1014,4 hPa - 0,0 km/h - -1,9 C 1,0 C 0,0 km/h
Max-Datum _ 11.10.11 15.10.11 14.10.11 12.10.11 11.10.11 - 11.10.11 11.10.11 11.10.11
_ Max-Zeit 15:30 07:15 23:30 21:45 14:30 - 01:15 15:15 04:15
Maximum _ 18,7 C 84 % 1035,7 hPa 5,5 l/m 11,7 km/h
N-NO
- 12,8 C 18,5 C 45,1 km/h
W-SW
Durchschnitt _ 9,4 C 75 % 1024,6 hPa #46,0 l/m 2,2 km/h NW 5,1 C 9,3 C 9,4 km/h